sensor_id;sensor_type;location;lat;lon;timestamp;pressure;altitude;pressure_sealevel;temperature;humidity
55517;BME280;41724;51.176;-0.708;2022-12-18T00:01:16;101745.35;;;1.45;44.19
55517;BME280;41724;51.176;-0.708;2022-12-18T00:03:44;101744.39;;;1.28;44.72
55517;BME280;41724;51.176;-0.708;2022-12-18T00:06:11;101743.26;;;1.18;45.08
55517;BME280;41724;51.176;-0.708;2022-12-18T00:08:39;101744.63;;;1.31;45.06
55517;BME280;41724;51.176;-0.708;2022-12-18T00:11:08;101741.50;;;0.97;44.85
55517;BME280;41724;51.176;-0.708;2022-12-18T00:13:36;101738.44;;;1.37;45.26
55517;BME280;41724;51.176;-0.708;2022-12-18T00:16:07;101738.30;;;1.14;44.60
55517;BME280;41724;51.176;-0.708;2022-12-18T00:18:35;101739.88;;;0.40;45.88
55517;BME280;41724;51.176;-0.708;2022-12-18T00:21:06;101742.75;;;1.12;45.44
55517;BME280;41724;51.176;-0.708;2022-12-18T00:23:35;101740.06;;;1.13;44.83
55517;BME280;41724;51.176;-0.708;2022-12-18T00:26:04;101734.04;;;1.04;44.38
55517;BME280;41724;51.176;-0.708;2022-12-18T00:28:32;101727.99;;;1.07;45.34
55517;BME280;41724;51.176;-0.708;2022-12-18T00:31:00;101718.49;;;0.82;44.89
55517;BME280;41724;51.176;-0.708;2022-12-18T00:33:27;101714.18;;;0.86;46.14
55517;BME280;41724;51.176;-0.708;2022-12-18T00:35:55;101711.88;;;0.71;46.74
55517;BME280;41724;51.176;-0.708;2022-12-18T00:38:26;101712.25;;;0.76;47.07
55517;BME280;41724;51.176;-0.708;2022-12-18T00:40:54;101704.54;;;1.12;46.88
55517;BME280;41724;51.176;-0.708;2022-12-18T00:43:21;101708.52;;;0.74;47.05
55517;BME280;41724;51.176;-0.708;2022-12-18T00:45:48;101702.51;;;1.23;46.49
55517;BME280;41724;51.176;-0.708;2022-12-18T00:48:16;101702.35;;;1.03;46.21
55517;BME280;41724;51.176;-0.708;2022-12-18T00:50:44;101700.32;;;1.26;45.59
55517;BME280;41724;51.176;-0.708;2022-12-18T00:53:11;101689.11;;;1.03;46.50
55517;BME280;41724;51.176;-0.708;2022-12-18T00:55:39;101686.56;;;1.00;46.45
55517;BME280;41724;51.176;-0.708;2022-12-18T00:58:07;101679.62;;;0.83;46.63
55517;BME280;41724;51.176;-0.708;2022-12-18T01:00:34;101673.93;;;0.85;45.96
55517;BME280;41724;51.176;-0.708;2022-12-18T01:03:02;101671.82;;;0.79;46.59
55517;BME280;41724;51.176;-0.708;2022-12-18T01:05:29;101669.57;;;0.96;46.51
55517;BME280;41724;51.176;-0.708;2022-12-18T01:07:56;101666.04;;;1.04;46.57
55517;BME280;41724;51.176;-0.708;2022-12-18T01:10:24;101662.41;;;0.82;46.37
55517;BME280;41724;51.176;-0.708;2022-12-18T01:12:51;101662.61;;;1.09;46.21
55517;BME280;41724;51.176;-0.708;2022-12-18T01:15:19;101662.62;;;1.09;46.13
55517;BME280;41724;51.176;-0.708;2022-12-18T01:17:46;101659.90;;;0.73;46.34
55517;BME280;41724;51.176;-0.708;2022-12-18T01:20:13;101658.74;;;0.89;46.70
55517;BME280;41724;51.176;-0.708;2022-12-18T01:22:40;101660.62;;;0.61;47.50
55517;BME280;41724;51.176;-0.708;2022-12-18T01:25:08;101658.57;;;0.74;46.60
55517;BME280;41724;51.176;-0.708;2022-12-18T01:27:35;101653.83;;;0.81;46.28
55517;BME280;41724;51.176;-0.708;2022-12-18T01:30:03;101654.65;;;0.51;46.25
55517;BME280;41724;51.176;-0.708;2022-12-18T01:32:31;101655.84;;;0.75;46.25
55517;BME280;41724;51.176;-0.708;2022-12-18T01:34:58;101649.92;;;0.83;46.06
55517;BME280;41724;51.176;-0.708;2022-12-18T01:37:25;101647.28;;;0.66;45.58
55517;BME280;41724;51.176;-0.708;2022-12-18T01:39:53;101647.28;;;0.93;45.53
55517;BME280;41724;51.176;-0.708;2022-12-18T01:42:21;101645.61;;;0.54;46.28
55517;BME280;41724;51.176;-0.708;2022-12-18T01:44:58;101645.08;;;0.70;45.99
55517;BME280;41724;51.176;-0.708;2022-12-18T01:47:30;101644.93;;;0.46;45.69
55517;BME280;41724;51.176;-0.708;2022-12-18T01:50:02;101649.91;;;0.36;45.65
55517;BME280;41724;51.176;-0.708;2022-12-18T01:52:32;101656.79;;;0.59;46.74
55517;BME280;41724;51.176;-0.708;2022-12-18T01:55:02;101660.12;;;0.59;46.18
55517;BME280;41724;51.176;-0.708;2022-12-18T01:57:29;101664.10;;;0.71;45.95
55517;BME280;41724;51.176;-0.708;2022-12-18T02:00:03;101664.11;;;0.71;45.68
55517;BME280;41724;51.176;-0.708;2022-12-18T02:02:31;101663.58;;;0.67;45.18
55517;BME280;41724;51.176;-0.708;2022-12-18T02:04:59;101667.88;;;0.87;44.68
55517;BME280;41724;51.176;-0.708;2022-12-18T02:07:35;101670.85;;;0.78;44.83
55517;BME280;41724;51.176;-0.708;2022-12-18T02:10:12;101672.41;;;0.72;44.96
55517;BME280;41724;51.176;-0.708;2022-12-18T02:12:49;101672.03;;;0.74;44.96
55517;BME280;41724;51.176;-0.708;2022-12-18T02:15:26;101675.34;;;0.67;44.78
55517;BME280;41724;51.176;-0.708;2022-12-18T02:18:00;101673.55;;;0.61;44.72
55517;BME280;41724;51.176;-0.708;2022-12-18T02:20:36;101676.64;;;0.65;44.29
55517;BME280;41724;51.176;-0.708;2022-12-18T02:23:11;101676.05;;;0.50;44.56
55517;BME280;41724;51.176;-0.708;2022-12-18T02:26:02;101670.81;;;0.69;44.11
55517;BME280;41724;51.176;-0.708;2022-12-18T02:28:38;101671.38;;;0.65;44.39
55517;BME280;41724;51.176;-0.708;2022-12-18T02:31:09;101671.51;;;0.69;44.10
55517;BME280;41724;51.176;-0.708;2022-12-18T02:33:39;101675.51;;;0.62;44.40
55517;BME280;41724;51.176;-0.708;2022-12-18T02:36:08;101677.71;;;0.62;44.27
55517;BME280;41724;51.176;-0.708;2022-12-18T02:38:37;101680.50;;;0.54;44.86
55517;BME280;41724;51.176;-0.708;2022-12-18T02:41:05;101677.65;;;0.64;44.51
55517;BME280;41724;51.176;-0.708;2022-12-18T02:43:33;101673.41;;;0.65;44.74
55517;BME280;41724;51.176;-0.708;2022-12-18T02:46:20;101670.66;;;0.72;44.58
55517;BME280;41724;51.176;-0.708;2022-12-18T02:48:52;101665.83;;;0.64;44.43
55517;BME280;41724;51.176;-0.708;2022-12-18T02:51:27;101661.12;;;0.65;44.58
55517;BME280;41724;51.176;-0.708;2022-12-18T02:54:02;101652.21;;;0.63;44.92
55517;BME280;41724;51.176;-0.708;2022-12-18T02:56:37;101641.12;;;0.73;44.95
55517;BME280;41724;51.176;-0.708;2022-12-18T02:59:09;101632.29;;;0.64;46.20
55517;BME280;41724;51.176;-0.708;2022-12-18T03:01:45;101632.01;;;0.93;46.08
55517;BME280;41724;51.176;-0.708;2022-12-18T03:04:23;101633.91;;;1.04;46.57
55517;BME280;41724;51.176;-0.708;2022-12-18T03:06:55;101632.97;;;1.21;46.42
55517;BME280;41724;51.176;-0.708;2022-12-18T03:09:30;101621.63;;;0.94;46.98
55517;BME280;41724;51.176;-0.708;2022-12-18T03:12:04;101613.82;;;1.41;46.08
55517;BME280;41724;51.176;-0.708;2022-12-18T03:14:33;101610.78;;;1.56;45.78
55517;BME280;41724;51.176;-0.708;2022-12-18T03:17:05;101614.50;;;1.52;45.79
55517;BME280;41724;51.176;-0.708;2022-12-18T03:19:36;101607.98;;;1.52;46.58
55517;BME280;41724;51.176;-0.708;2022-12-18T03:22:05;101612.18;;;1.52;45.86
55517;BME280;41724;51.176;-0.708;2022-12-18T03:24:34;101610.77;;;1.51;45.86
55517;BME280;41724;51.176;-0.708;2022-12-18T03:27:04;101604.93;;;1.74;46.44
55517;BME280;41724;51.176;-0.708;2022-12-18T03:29:40;101603.61;;;1.83;45.65
55517;BME280;41724;51.176;-0.708;2022-12-18T03:32:16;101597.68;;;1.71;46.33
55517;BME280;41724;51.176;-0.708;2022-12-18T03:34:47;101598.57;;;1.30;46.58
55517;BME280;41724;51.176;-0.708;2022-12-18T03:37:16;101602.00;;;1.78;46.44
55517;BME280;41724;51.176;-0.708;2022-12-18T03:39:43;101604.46;;;1.38;46.38
55517;BME280;41724;51.176;-0.708;2022-12-18T03:42:17;101601.28;;;1.50;46.45
55517;BME280;41724;51.176;-0.708;2022-12-18T03:44:54;101596.72;;;2.21;45.94
55517;BME280;41724;51.176;-0.708;2022-12-18T03:47:28;101592.22;;;2.12;46.56
55517;BME280;41724;51.176;-0.708;2022-12-18T03:49:59;101592.65;;;2.07;46.16
55517;BME280;41724;51.176;-0.708;2022-12-18T03:52:35;101595.99;;;1.95;47.19
55517;BME280;41724;51.176;-0.708;2022-12-18T03:55:03;101590.84;;;2.15;47.10
55517;BME280;41724;51.176;-0.708;2022-12-18T03:57:32;101585.49;;;2.41;47.17
55517;BME280;41724;51.176;-0.708;2022-12-18T04:00:03;101580.03;;;2.58;46.50
55517;BME280;41724;51.176;-0.708;2022-12-18T04:02:34;101579.36;;;2.67;46.88
55517;BME280;41724;51.176;-0.708;2022-12-18T04:05:04;101577.79;;;2.56;46.88
55517;BME280;41724;51.176;-0.708;2022-12-18T04:07:32;101580.66;;;2.73;46.59
55517;BME280;41724;51.176;-0.708;2022-12-18T04:10:00;101578.31;;;2.78;46.72
55517;BME280;41724;51.176;-0.708;2022-12-18T04:12:29;101578.75;;;2.86;46.83
55517;BME280;41724;51.176;-0.708;2022-12-18T04:14:56;101573.56;;;2.75;46.45
55517;BME280;41724;51.176;-0.708;2022-12-18T04:17:23;101576.21;;;2.74;46.81
55517;BME280;41724;51.176;-0.708;2022-12-18T04:19:50;101571.06;;;3.13;46.35
55517;BME280;41724;51.176;-0.708;2022-12-18T04:22:18;101567.09;;;2.95;46.18
55517;BME280;41724;51.176;-0.708;2022-12-18T04:24:44;101570.81;;;3.19;46.39
55517;BME280;41724;51.176;-0.708;2022-12-18T04:27:12;101571.85;;;2.97;46.29
55517;BME280;41724;51.176;-0.708;2022-12-18T04:29:39;101562.60;;;3.01;46.12
55517;BME280;41724;51.176;-0.708;2022-12-18T04:32:07;101563.80;;;3.13;46.27
55517;BME280;41724;51.176;-0.708;2022-12-18T04:34:34;101559.04;;;3.18;46.35
55517;BME280;41724;51.176;-0.708;2022-12-18T04:37:02;101553.10;;;3.30;47.15
55517;BME280;41724;51.176;-0.708;2022-12-18T04:39:29;101549.19;;;3.21;47.03
55517;BME280;41724;51.176;-0.708;2022-12-18T04:41:56;101539.90;;;3.21;47.15
55517;BME280;41724;51.176;-0.708;2022-12-18T04:44:23;101531.90;;;3.35;46.42
55517;BME280;41724;51.176;-0.708;2022-12-18T04:46:50;101527.98;;;3.37;46.33
55517;BME280;41724;51.176;-0.708;2022-12-18T04:49:17;101529.94;;;3.35;46.22
55517;BME280;41724;51.176;-0.708;2022-12-18T04:51:44;101529.14;;;3.37;46.81
55517;BME280;41724;51.176;-0.708;2022-12-18T04:54:12;101523.45;;;3.30;46.86
55517;BME280;41724;51.176;-0.708;2022-12-18T04:56:39;101511.45;;;3.55;46.50
55517;BME280;41724;51.176;-0.708;2022-12-18T04:59:07;101504.81;;;3.59;46.58
55517;BME280;41724;51.176;-0.708;2022-12-18T05:01:34;101500.68;;;3.60;47.23
55517;BME280;41724;51.176;-0.708;2022-12-18T05:04:02;101499.23;;;3.65;47.18
55517;BME280;41724;51.176;-0.708;2022-12-18T05:06:29;101496.60;;;3.79;46.80
55517;BME280;41724;51.176;-0.708;2022-12-18T05:08:57;101496.03;;;3.73;46.95
55517;BME280;41724;51.176;-0.708;2022-12-18T05:11:24;101495.56;;;3.55;46.98
55517;BME280;41724;51.176;-0.708;2022-12-18T05:13:51;101493.76;;;3.74;47.03
55517;BME280;41724;51.176;-0.708;2022-12-18T05:16:18;101489.64;;;3.85;46.67
55517;BME280;41724;51.176;-0.708;2022-12-18T05:18:45;101478.22;;;3.89;46.96
55517;BME280;41724;51.176;-0.708;2022-12-18T05:21:12;101477.66;;;3.83;47.01
55517;BME280;41724;51.176;-0.708;2022-12-18T05:23:39;101467.39;;;3.88;46.73
55517;BME280;41724;51.176;-0.708;2022-12-18T05:26:07;101452.82;;;3.87;46.92
55517;BME280;41724;51.176;-0.708;2022-12-18T05:28:35;101451.59;;;3.97;46.55
55517;BME280;41724;51.176;-0.708;2022-12-18T05:31:04;101449.44;;;4.02;46.77
55517;BME280;41724;51.176;-0.708;2022-12-18T05:33:33;101449.07;;;3.81;48.49
55517;BME280;41724;51.176;-0.708;2022-12-18T05:36:03;101448.62;;;4.07;48.38
55517;BME280;41724;51.176;-0.708;2022-12-18T05:38:31;101449.53;;;3.68;48.34
55517;BME280;41724;51.176;-0.708;2022-12-18T05:40:59;101446.73;;;3.90;48.42
55517;BME280;41724;51.176;-0.708;2022-12-18T05:43:26;101443.09;;;3.89;47.73
55517;BME280;41724;51.176;-0.708;2022-12-18T05:45:55;101438.92;;;4.14;48.98
55517;BME280;41724;51.176;-0.708;2022-12-18T05:48:22;101430.58;;;4.20;47.51
55517;BME280;41724;51.176;-0.708;2022-12-18T05:50:50;101421.21;;;3.48;49.24
55517;BME280;41724;51.176;-0.708;2022-12-18T05:53:20;101413.14;;;4.04;48.90
55517;BME280;41724;51.176;-0.708;2022-12-18T05:55:48;101411.08;;;3.53;49.84
55517;BME280;41724;51.176;-0.708;2022-12-18T05:58:17;101408.80;;;3.72;50.31
55517;BME280;41724;51.176;-0.708;2022-12-18T06:00:45;101401.08;;;3.69;51.54
55517;BME280;41724;51.176;-0.708;2022-12-18T06:03:13;101393.27;;;3.25;52.12
55517;BME280;41724;51.176;-0.708;2022-12-18T06:05:42;101387.75;;;3.70;51.88
55517;BME280;41724;51.176;-0.708;2022-12-18T06:08:11;101385.27;;;3.72;52.02
55517;BME280;41724;51.176;-0.708;2022-12-18T06:10:38;101376.28;;;4.01;50.57
55517;BME280;41724;51.176;-0.708;2022-12-18T06:13:06;101368.20;;;4.20;49.74
55517;BME280;41724;51.176;-0.708;2022-12-18T06:15:36;101370.18;;;3.54;51.52
55517;BME280;41724;51.176;-0.708;2022-12-18T06:18:04;101367.24;;;3.94;51.40
55517;BME280;41724;51.176;-0.708;2022-12-18T06:20:31;101360.17;;;4.27;50.60
55517;BME280;41724;51.176;-0.708;2022-12-18T06:22:59;101355.85;;;4.40;50.13
55517;BME280;41724;51.176;-0.708;2022-12-18T06:25:26;101356.94;;;4.25;50.47
55517;BME280;41724;51.176;-0.708;2022-12-18T06:27:54;101360.38;;;4.13;51.13
55517;BME280;41724;51.176;-0.708;2022-12-18T06:30:20;101365.57;;;3.39;52.39
55517;BME280;41724;51.176;-0.708;2022-12-18T06:32:48;101361.55;;;4.32;50.63
55517;BME280;41724;51.176;-0.708;2022-12-18T06:35:17;101358.92;;;4.70;50.19
55517;BME280;41724;51.176;-0.708;2022-12-18T06:37:44;101356.98;;;4.81;50.02
55517;BME280;41724;51.176;-0.708;2022-12-18T06:40:11;101353.14;;;4.11;50.84
55517;BME280;41724;51.176;-0.708;2022-12-18T06:42:38;101362.19;;;4.63;49.62
55517;BME280;41724;51.176;-0.708;2022-12-18T06:45:06;101367.08;;;4.81;49.84
55517;BME280;41724;51.176;-0.708;2022-12-18T06:47:34;101358.59;;;4.73;49.32
55517;BME280;41724;51.176;-0.708;2022-12-18T06:50:01;101361.00;;;4.91;49.01
55517;BME280;41724;51.176;-0.708;2022-12-18T06:52:31;101356.35;;;4.73;49.24
55517;BME280;41724;51.176;-0.708;2022-12-18T06:54:59;101348.32;;;4.16;50.17
55517;BME280;41724;51.176;-0.708;2022-12-18T06:57:26;101342.68;;;4.60;49.90
55517;BME280;41724;51.176;-0.708;2022-12-18T06:59:53;101338.45;;;4.67;49.79
55517;BME280;41724;51.176;-0.708;2022-12-18T07:02:20;101336.60;;;4.29;51.50
55517;BME280;41724;51.176;-0.708;2022-12-18T07:04:50;101331.38;;;4.85;50.37
55517;BME280;41724;51.176;-0.708;2022-12-18T07:07:18;101331.87;;;4.80;49.82
55517;BME280;41724;51.176;-0.708;2022-12-18T07:09:44;101329.19;;;5.14;49.26
55517;BME280;41724;51.176;-0.708;2022-12-18T07:12:12;101332.57;;;4.88;49.61
55517;BME280;41724;51.176;-0.708;2022-12-18T07:14:38;101336.98;;;5.25;49.74
55517;BME280;41724;51.176;-0.708;2022-12-18T07:17:06;101335.69;;;4.74;50.02
55517;BME280;41724;51.176;-0.708;2022-12-18T07:19:33;101335.62;;;5.06;49.14
55517;BME280;41724;51.176;-0.708;2022-12-18T07:22:00;101327.05;;;4.82;49.71
55517;BME280;41724;51.176;-0.708;2022-12-18T07:24:28;101325.02;;;4.97;49.50
55517;BME280;41724;51.176;-0.708;2022-12-18T07:26:55;101325.00;;;5.11;49.75
55517;BME280;41724;51.176;-0.708;2022-12-18T07:29:23;101318.11;;;5.43;48.62
55517;BME280;41724;51.176;-0.708;2022-12-18T07:31:51;101314.99;;;5.28;48.58
55517;BME280;41724;51.176;-0.708;2022-12-18T07:34:18;101312.45;;;5.45;48.02
55517;BME280;41724;51.176;-0.708;2022-12-18T07:36:46;101310.33;;;5.43;48.35
55517;BME280;41724;51.176;-0.708;2022-12-18T07:39:12;101301.57;;;5.33;49.25
55517;BME280;41724;51.176;-0.708;2022-12-18T07:41:39;101301.02;;;5.12;49.31
55517;BME280;41724;51.176;-0.708;2022-12-18T07:44:09;101293.69;;;5.37;48.85
55517;BME280;41724;51.176;-0.708;2022-12-18T07:46:36;101296.26;;;5.50;48.56
55517;BME280;41724;51.176;-0.708;2022-12-18T07:49:04;101295.13;;;5.36;49.43
55517;BME280;41724;51.176;-0.708;2022-12-18T07:51:30;101290.85;;;4.60;50.32
55517;BME280;41724;51.176;-0.708;2022-12-18T07:53:57;101289.69;;;5.27;49.03
55517;BME280;41724;51.176;-0.708;2022-12-18T07:56:25;101285.37;;;5.60;48.47
55517;BME280;41724;51.176;-0.708;2022-12-18T07:58:52;101278.73;;;5.31;49.37
55517;BME280;41724;51.176;-0.708;2022-12-18T08:01:19;101281.29;;;5.24;49.20
55517;BME280;41724;51.176;-0.708;2022-12-18T08:03:46;101282.91;;;5.05;50.86
55517;BME280;41724;51.176;-0.708;2022-12-18T08:06:14;101281.88;;;5.11;49.93
55517;BME280;41724;51.176;-0.708;2022-12-18T08:08:40;101286.68;;;5.38;48.77
55517;BME280;41724;51.176;-0.708;2022-12-18T08:11:07;101279.18;;;4.94;50.20
55517;BME280;41724;51.176;-0.708;2022-12-18T08:13:34;101276.76;;;5.33;49.64
55517;BME280;41724;51.176;-0.708;2022-12-18T08:16:04;101282.72;;;5.27;49.92
55517;BME280;41724;51.176;-0.708;2022-12-18T08:18:32;101289.52;;;5.82;48.94
55517;BME280;41724;51.176;-0.708;2022-12-18T08:21:08;101299.64;;;5.67;48.33
55517;BME280;41724;51.176;-0.708;2022-12-18T08:23:35;101303.77;;;5.77;48.57
55517;BME280;41724;51.176;-0.708;2022-12-18T08:26:02;101301.50;;;5.29;48.63
55517;BME280;41724;51.176;-0.708;2022-12-18T08:28:30;101301.78;;;5.98;47.67
55517;BME280;41724;51.176;-0.708;2022-12-18T08:30:57;101308.37;;;5.50;48.01
55517;BME280;41724;51.176;-0.708;2022-12-18T08:33:25;101308.08;;;5.70;48.76
55517;BME280;41724;51.176;-0.708;2022-12-18T08:35:52;101307.51;;;5.99;48.50
55517;BME280;41724;51.176;-0.708;2022-12-18T08:38:19;101294.61;;;5.12;49.55
55517;BME280;41724;51.176;-0.708;2022-12-18T08:40:47;101305.17;;;5.90;48.97
55517;BME280;41724;51.176;-0.708;2022-12-18T08:43:17;101305.26;;;5.95;48.43
55517;BME280;41724;51.176;-0.708;2022-12-18T08:45:44;101305.36;;;5.28;49.18
55517;BME280;41724;51.176;-0.708;2022-12-18T08:48:11;101305.83;;;5.77;49.18
55517;BME280;41724;51.176;-0.708;2022-12-18T08:50:38;101306.11;;;5.72;49.24
55517;BME280;41724;51.176;-0.708;2022-12-18T08:53:05;101303.66;;;5.99;47.75
55517;BME280;41724;51.176;-0.708;2022-12-18T08:55:32;101301.95;;;6.16;47.52
55517;BME280;41724;51.176;-0.708;2022-12-18T08:57:59;101307.06;;;6.22;47.86
55517;BME280;41724;51.176;-0.708;2022-12-18T09:00:26;101298.33;;;6.09;47.57
55517;BME280;41724;51.176;-0.708;2022-12-18T09:02:53;101298.45;;;6.06;47.52
55517;BME280;41724;51.176;-0.708;2022-12-18T09:05:20;101294.03;;;6.13;47.94
55517;BME280;41724;51.176;-0.708;2022-12-18T09:07:52;101294.56;;;6.30;47.53
55517;BME280;41724;51.176;-0.708;2022-12-18T09:10:19;101300.05;;;6.57;48.00
55517;BME280;41724;51.176;-0.708;2022-12-18T09:12:46;101306.31;;;6.53;46.87
55517;BME280;41724;51.176;-0.708;2022-12-18T09:15:14;101304.01;;;6.35;47.12
55517;BME280;41724;51.176;-0.708;2022-12-18T09:17:42;101302.24;;;6.50;46.74
55517;BME280;41724;51.176;-0.708;2022-12-18T09:20:10;101308.50;;;6.20;47.33
55517;BME280;41724;51.176;-0.708;2022-12-18T09:22:37;101325.48;;;6.10;48.14
55517;BME280;41724;51.176;-0.708;2022-12-18T09:25:04;101330.51;;;6.24;48.30
55517;BME280;41724;51.176;-0.708;2022-12-18T09:27:32;101329.72;;;6.28;48.02
55517;BME280;41724;51.176;-0.708;2022-12-18T09:29:59;101321.72;;;6.19;47.67
55517;BME280;41724;51.176;-0.708;2022-12-18T09:32:26;101317.44;;;6.52;47.71
55517;BME280;41724;51.176;-0.708;2022-12-18T09:34:53;101309.99;;;6.37;47.73
55517;BME280;41724;51.176;-0.708;2022-12-18T09:37:21;101300.21;;;6.89;47.43
55517;BME280;41724;51.176;-0.708;2022-12-18T09:39:48;101297.90;;;6.37;48.04
55517;BME280;41724;51.176;-0.708;2022-12-18T09:42:20;101297.65;;;6.52;47.58
55517;BME280;41724;51.176;-0.708;2022-12-18T09:44:50;101287.89;;;6.66;47.35
55517;BME280;41724;51.176;-0.708;2022-12-18T09:47:22;101294.44;;;6.61;47.69
55517;BME280;41724;51.176;-0.708;2022-12-18T09:49:56;101295.85;;;6.50;47.17
55517;BME280;41724;51.176;-0.708;2022-12-18T09:52:28;101302.54;;;6.68;47.51
55517;BME280;41724;51.176;-0.708;2022-12-18T09:55:03;101305.63;;;6.72;46.93
55517;BME280;41724;51.176;-0.708;2022-12-18T09:57:35;101303.54;;;6.84;47.02
55517;BME280;41724;51.176;-0.708;2022-12-18T10:00:15;101292.44;;;6.91;46.74
55517;BME280;41724;51.176;-0.708;2022-12-18T10:02:43;101279.43;;;6.97;46.68
55517;BME280;41724;51.176;-0.708;2022-12-18T10:05:13;101275.25;;;7.03;46.82
55517;BME280;41724;51.176;-0.708;2022-12-18T10:07:50;101275.25;;;6.84;47.08
55517;BME280;41724;51.176;-0.708;2022-12-18T10:10:27;101274.29;;;6.93;47.76
55517;BME280;41724;51.176;-0.708;2022-12-18T10:13:05;101271.83;;;6.66;48.37
55517;BME280;41724;51.176;-0.708;2022-12-18T10:15:41;101271.30;;;6.92;48.41
55517;BME280;41724;51.176;-0.708;2022-12-18T10:18:25;101270.42;;;6.96;48.75
55517;BME280;41724;51.176;-0.708;2022-12-18T10:20:59;101262.51;;;7.18;48.58
55517;BME280;41724;51.176;-0.708;2022-12-18T10:23:35;101261.62;;;7.08;49.00
55517;BME280;41724;51.176;-0.708;2022-12-18T10:26:06;101258.32;;;6.94;48.70
55517;BME280;41724;51.176;-0.708;2022-12-18T10:28:36;101253.65;;;7.09;49.13
55517;BME280;41724;51.176;-0.708;2022-12-18T10:31:05;101247.74;;;7.05;49.27
55517;BME280;41724;51.176;-0.708;2022-12-18T10:33:34;101244.99;;;7.27;49.45
55517;BME280;41724;51.176;-0.708;2022-12-18T10:36:01;101239.81;;;7.18;49.69
55517;BME280;41724;51.176;-0.708;2022-12-18T10:38:30;101229.69;;;7.18;49.86
55517;BME280;41724;51.176;-0.708;2022-12-18T10:40:59;101223.87;;;7.23;49.67
55517;BME280;41724;51.176;-0.708;2022-12-18T10:43:28;101228.60;;;7.15;49.94
55517;BME280;41724;51.176;-0.708;2022-12-18T10:46:01;101234.35;;;7.37;50.20
55517;BME280;41724;51.176;-0.708;2022-12-18T10:48:30;101236.42;;;7.35;50.12
55517;BME280;41724;51.176;-0.708;2022-12-18T10:50:58;101228.47;;;6.71;51.76
55517;BME280;41724;51.176;-0.708;2022-12-18T10:53:28;101226.91;;;6.72;52.17
55517;BME280;41724;51.176;-0.708;2022-12-18T10:55:57;101227.66;;;6.63;51.46
55517;BME280;41724;51.176;-0.708;2022-12-18T10:58:27;101216.28;;;7.25;50.91
55517;BME280;41724;51.176;-0.708;2022-12-18T11:01:05;101215.16;;;7.18;51.32
55517;BME280;41724;51.176;-0.708;2022-12-18T11:03:35;101221.38;;;6.07;53.92
55517;BME280;41724;51.176;-0.708;2022-12-18T11:06:05;101208.84;;;6.70;53.14
55517;BME280;41724;51.176;-0.708;2022-12-18T11:08:33;101198.86;;;6.73;52.90
55517;BME280;41724;51.176;-0.708;2022-12-18T11:11:01;101203.19;;;6.65;52.82
55517;BME280;41724;51.176;-0.708;2022-12-18T11:13:30;101197.88;;;7.16;52.51
55517;BME280;41724;51.176;-0.708;2022-12-18T11:15:57;101200.92;;;6.98;52.54
55517;BME280;41724;51.176;-0.708;2022-12-18T11:18:27;101206.70;;;6.75;54.06
55517;BME280;41724;51.176;-0.708;2022-12-18T11:20:57;101198.42;;;7.11;53.13
55517;BME280;41724;51.176;-0.708;2022-12-18T11:23:26;101198.74;;;6.62;54.35
55517;BME280;41724;51.176;-0.708;2022-12-18T11:25:56;101190.43;;;6.16;55.35
55517;BME280;41724;51.176;-0.708;2022-12-18T11:28:28;101181.92;;;6.69;54.91
55517;BME280;41724;51.176;-0.708;2022-12-18T11:31:16;101173.23;;;6.34;55.87
55517;BME280;41724;51.176;-0.708;2022-12-18T11:33:51;101164.01;;;6.90;54.30
55517;BME280;41724;51.176;-0.708;2022-12-18T11:36:20;101161.83;;;7.06;53.73
55517;BME280;41724;51.176;-0.708;2022-12-18T11:38:50;101158.04;;;6.06;56.21
55517;BME280;41724;51.176;-0.708;2022-12-18T11:41:23;101135.67;;;6.29;56.32
55517;BME280;41724;51.176;-0.708;2022-12-18T11:43:55;101127.52;;;6.10;57.44
55517;BME280;41724;51.176;-0.708;2022-12-18T11:46:30;101120.48;;;6.42;56.63
55517;BME280;41724;51.176;-0.708;2022-12-18T11:49:06;101111.29;;;6.28;56.83
55517;BME280;41724;51.176;-0.708;2022-12-18T11:51:38;101098.87;;;6.30;57.42
55517;BME280;41724;51.176;-0.708;2022-12-18T11:54:12;101109.14;;;5.71;58.56
55517;BME280;41724;51.176;-0.708;2022-12-18T11:56:46;101106.95;;;6.43;56.68
55517;BME280;41724;51.176;-0.708;2022-12-18T11:59:23;101099.55;;;5.97;57.36
55517;BME280;41724;51.176;-0.708;2022-12-18T12:02:00;101110.74;;;5.22;59.24
55517;BME280;41724;51.176;-0.708;2022-12-18T12:04:56;101108.08;;;5.25;61.37
55517;BME280;41724;51.176;-0.708;2022-12-18T12:07:36;101097.56;;;4.84;61.02
55517;BME280;41724;51.176;-0.708;2022-12-18T12:10:22;101080.62;;;5.08;62.83
55517;BME280;41724;51.176;-0.708;2022-12-18T12:13:06;101075.52;;;4.63;63.40
55517;BME280;41724;51.176;-0.708;2022-12-18T12:15:41;101059.14;;;5.72;61.16
55517;BME280;41724;51.176;-0.708;2022-12-18T12:18:21;101056.54;;;5.27;61.80
55517;BME280;41724;51.176;-0.708;2022-12-18T12:21:02;101049.20;;;4.12;64.86
55517;BME280;41724;51.176;-0.708;2022-12-18T12:23:40;101040.93;;;5.01;63.15
55517;BME280;41724;51.176;-0.708;2022-12-18T12:26:13;101030.32;;;4.69;64.73
55517;BME280;41724;51.176;-0.708;2022-12-18T12:28:59;101027.61;;;5.53;62.30
55517;BME280;41724;51.176;-0.708;2022-12-18T12:31:39;101029.46;;;5.14;63.42
55517;BME280;41724;51.176;-0.708;2022-12-18T12:34:18;101012.55;;;5.39;63.42
55517;BME280;41724;51.176;-0.708;2022-12-18T12:37:00;101006.18;;;5.49;62.77
55517;BME280;41724;51.176;-0.708;2022-12-18T12:39:32;101002.01;;;5.37;63.69
55517;BME280;41724;51.176;-0.708;2022-12-18T12:42:02;100995.63;;;5.16;64.66
55517;BME280;41724;51.176;-0.708;2022-12-18T12:44:34;100988.71;;;5.34;64.28
55517;BME280;41724;51.176;-0.708;2022-12-18T12:47:11;100990.39;;;5.67;62.48
55517;BME280;41724;51.176;-0.708;2022-12-18T12:49:40;100982.23;;;4.99;65.89
55517;BME280;41724;51.176;-0.708;2022-12-18T12:52:12;100989.80;;;4.74;66.25
55517;BME280;41724;51.176;-0.708;2022-12-18T12:54:43;100978.33;;;5.20;64.34
55517;BME280;41724;51.176;-0.708;2022-12-18T12:57:17;100974.54;;;6.07;62.57
55517;BME280;41724;51.176;-0.708;2022-12-18T12:59:59;100967.85;;;5.71;63.54
55517;BME280;41724;51.176;-0.708;2022-12-18T13:02:33;100958.20;;;5.46;65.59
55517;BME280;41724;51.176;-0.708;2022-12-18T13:05:09;100948.55;;;5.35;65.19